FFT576 KMCO-KATL
Flight info
| Callsign | FFT576 |
|---|---|
| Flight time | N/A |
| Altitude | 36000 |
| Route | JEEMY4 PAINN SHRKS LAIRI LARZZ JJEDI4 |
| Aircraft | A321/M-VGDW/C |
Departure
| Time | 2026-04-24 23:22 |
|---|---|
| Airport | Orlando International Airport (KMCO) |
Arrival
| Time | N/A |
|---|---|
| Airport | Hartsfield Jackson Atlanta International Airport (KATL) |
| Time | Latitude | Longitude | Altitude | Speed | Heading |
|---|---|---|---|---|---|
| 2026-04-24 22:39 | 28.43541 | -81.31535 | 87 ft | 0 kts | 87° |
| 2026-04-24 22:40 | 28.43590 | -81.31570 | 88 ft | 0 kts | 115° |
| 2026-04-24 22:40 | 28.43589 | -81.31572 | 88 ft | 0 kts | 115° |
| 2026-04-24 23:08 | 28.43590 | -81.31574 | 88 ft | 0 kts | 115° |
| 2026-04-24 23:09 | 28.43594 | -81.31585 | 88 ft | 2 kts | 103° |
| 2026-04-24 23:09 | 28.43595 | -81.31602 | 88 ft | 2 kts | 84° |
| 2026-04-24 23:09 | 28.43592 | -81.31619 | 88 ft | 2 kts | 66° |
| 2026-04-24 23:09 | 28.43584 | -81.31633 | 88 ft | 2 kts | 49° |
| 2026-04-24 23:10 | 28.43572 | -81.31644 | 88 ft | 2 kts | 30° |
| 2026-04-24 23:10 | 28.43560 | -81.31651 | 88 ft | 0 kts | 14° |
| 2026-04-24 23:10 | 28.43554 | -81.31652 | 88 ft | 1 kts | 10° |
| 2026-04-24 23:10 | 28.43552 | -81.31652 | 88 ft | 0 kts | 11° |
| 2026-04-24 23:13 | 28.43553 | -81.31652 | 88 ft | 0 kts | 11° |
| 2026-04-24 23:13 | 28.43564 | -81.31650 | 88 ft | 2 kts | 11° |
| 2026-04-24 23:14 | 28.43590 | -81.31644 | 88 ft | 4 kts | 11° |
| 2026-04-24 23:14 | 28.43630 | -81.31635 | 89 ft | 6 kts | 11° |
| 2026-04-24 23:14 | 28.43683 | -81.31625 | 90 ft | 8 kts | 10° |
| 2026-04-24 23:14 | 28.43752 | -81.31633 | 91 ft | 11 kts | 336° |
| 2026-04-24 23:15 | 28.43836 | -81.31684 | 91 ft | 15 kts | 354° |
| 2026-04-24 23:15 | 28.43922 | -81.31640 | 91 ft | 15 kts | 85° |
| 2026-04-24 23:15 | 28.43923 | -81.31522 | 91 ft | 14 kts | 91° |
| 2026-04-24 23:15 | 28.43925 | -81.31403 | 91 ft | 14 kts | 85° |
| 2026-04-24 23:16 | 28.43930 | -81.31287 | 90 ft | 15 kts | 88° |
| 2026-04-24 23:16 | 28.43937 | -81.31166 | 89 ft | 15 kts | 87° |
| 2026-04-24 23:16 | 28.43944 | -81.31038 | 88 ft | 16 kts | 86° |
| 2026-04-24 23:16 | 28.43944 | -81.30911 | 87 ft | 16 kts | 90° |
| 2026-04-24 23:17 | 28.43937 | -81.30782 | 88 ft | 16 kts | 96° |
| 2026-04-24 23:17 | 28.43931 | -81.30661 | 88 ft | 15 kts | 92° |
| 2026-04-24 23:17 | 28.43922 | -81.30544 | 89 ft | 14 kts | 96° |
| 2026-04-24 23:17 | 28.43915 | -81.30415 | 90 ft | 20 kts | 93° |
| 2026-04-24 23:18 | 28.43908 | -81.30203 | 91 ft | 33 kts | 91° |
| 2026-04-24 23:18 | 28.43863 | -81.29912 | 91 ft | 40 kts | 129° |
| 2026-04-24 23:18 | 28.43634 | -81.29801 | 91 ft | 27 kts | 169° |
| 2026-04-24 23:18 | 28.43550 | -81.29750 | 91 ft | 0 kts | 85° |
| 2026-04-24 23:19 | 28.43550 | -81.29745 | 91 ft | 1 kts | 88° |
| 2026-04-24 23:19 | 28.43551 | -81.29731 | 91 ft | 2 kts | 89° |
| 2026-04-24 23:19 | 28.43550 | -81.29709 | 91 ft | 3 kts | 91° |
| 2026-04-24 23:19 | 28.43549 | -81.29678 | 91 ft | 4 kts | 92° |
| 2026-04-24 23:20 | 28.43548 | -81.29639 | 91 ft | 5 kts | 94° |
| 2026-04-24 23:20 | 28.43540 | -81.29597 | 91 ft | 5 kts | 134° |
| 2026-04-24 23:20 | 28.43500 | -81.29587 | 91 ft | 3 kts | 180° |
| 2026-04-24 23:20 | 28.43499 | -81.29587 | 91 ft | 0 kts | 180° |
| 2026-04-24 23:21 | 28.43413 | -81.29588 | 91 ft | 45 kts | 178° |
| 2026-04-24 23:21 | 28.42820 | -81.29579 | 90 ft | 121 kts | 179° |
| 2026-04-24 23:22 | 28.41799 | -81.29577 | 228 ft | 163 kts | 180° |
| 2026-04-24 23:22 | 28.40656 | -81.29565 | 832 ft | 170 kts | 174° |
| 2026-04-24 23:22 | 28.39568 | -81.28992 | 1403 ft | 183 kts | 141° |
| 2026-04-24 23:22 | 28.38715 | -81.27880 | 2068 ft | 193 kts | 119° |
| 2026-04-24 23:23 | 28.38318 | -81.26451 | 2865 ft | 194 kts | 86° |
| 2026-04-24 23:23 | 28.38850 | -81.25033 | 3294 ft | 215 kts | 47° |
| 2026-04-24 23:23 | 28.40255 | -81.24178 | 3499 ft | 250 kts | 8° |
| 2026-04-24 23:23 | 28.41996 | -81.24548 | 4145 ft | 265 kts | 334° |
| 2026-04-24 23:24 | 28.43450 | -81.25877 | 4879 ft | 278 kts | 303° |
| 2026-04-24 23:24 | 28.44210 | -81.27845 | 6025 ft | 273 kts | 291° |
| 2026-04-24 23:24 | 28.45134 | -81.29665 | 6953 ft | 272 kts | 313° |
| 2026-04-24 23:24 | 28.46705 | -81.30875 | 7590 ft | 276 kts | 341° |
| 2026-04-24 23:25 | 28.48586 | -81.31181 | 8209 ft | 279 kts | 0° |
| 2026-04-24 23:25 | 28.50547 | -81.31158 | 8844 ft | 283 kts | 360° |
| 2026-04-24 23:25 | 28.52527 | -81.31223 | 9479 ft | 286 kts | 356° |
| 2026-04-24 23:25 | 28.54521 | -81.31411 | 10121 ft | 289 kts | 354° |
| 2026-04-24 23:26 | 28.56540 | -81.31692 | 10569 ft | 299 kts | 352° |
| 2026-04-24 23:26 | 28.58652 | -81.32053 | 10863 ft | 314 kts | 351° |
| 2026-04-24 23:26 | 28.60837 | -81.32468 | 11336 ft | 322 kts | 350° |
| 2026-04-24 23:26 | 28.63051 | -81.32912 | 11964 ft | 325 kts | 350° |
| 2026-04-24 23:27 | 28.65283 | -81.33373 | 12595 ft | 328 kts | 349° |
| 2026-04-24 23:27 | 28.67559 | -81.33852 | 13214 ft | 331 kts | 349° |
| 2026-04-24 23:27 | 28.69819 | -81.34333 | 13814 ft | 334 kts | 349° |
| 2026-04-24 23:27 | 28.72110 | -81.34824 | 14407 ft | 337 kts | 349° |
| 2026-04-24 23:28 | 28.74444 | -81.35272 | 14986 ft | 340 kts | 352° |
| 2026-04-24 23:28 | 28.76783 | -81.35583 | 15549 ft | 342 kts | 354° |
| 2026-04-24 23:28 | 28.79169 | -81.35870 | 16105 ft | 345 kts | 354° |
| 2026-04-24 23:28 | 28.81546 | -81.36158 | 16642 ft | 348 kts | 354° |
| 2026-04-24 23:29 | 28.83972 | -81.36460 | 17172 ft | 351 kts | 354° |
| 2026-04-24 23:29 | 28.86422 | -81.36771 | 17691 ft | 354 kts | 354° |
| 2026-04-24 23:29 | 28.88868 | -81.37086 | 18192 ft | 356 kts | 354° |
| 2026-04-24 23:29 | 28.91329 | -81.37405 | 18681 ft | 359 kts | 353° |
| 2026-04-24 23:30 | 28.93832 | -81.37730 | 19165 ft | 362 kts | 353° |
| 2026-04-24 23:30 | 28.96349 | -81.38059 | 19636 ft | 364 kts | 353° |
| 2026-04-24 23:30 | 28.98883 | -81.38391 | 20096 ft | 367 kts | 353° |
| 2026-04-24 23:30 | 29.01407 | -81.38722 | 20542 ft | 369 kts | 353° |
| 2026-04-24 23:31 | 29.03993 | -81.39061 | 20986 ft | 372 kts | 353° |
| 2026-04-24 23:31 | 29.06538 | -81.39396 | 21411 ft | 374 kts | 353° |
| 2026-04-24 23:31 | 29.09159 | -81.39740 | 21837 ft | 377 kts | 353° |
| 2026-04-24 23:31 | 29.11774 | -81.40083 | 22250 ft | 379 kts | 353° |
| 2026-04-24 23:32 | 29.14382 | -81.40424 | 22650 ft | 381 kts | 353° |
| 2026-04-24 23:32 | 29.17034 | -81.40771 | 23044 ft | 384 kts | 353° |
| 2026-04-24 23:32 | 29.19712 | -81.41123 | 23432 ft | 386 kts | 353° |
| 2026-04-24 23:32 | 29.22380 | -81.41474 | 23808 ft | 388 kts | 353° |
| 2026-04-24 23:33 | 29.25057 | -81.41827 | 24176 ft | 391 kts | 353° |
| 2026-04-24 23:33 | 29.26884 | -81.42068 | 24422 ft | 392 kts | 353° |
| 2026-04-24 23:33 | 29.30524 | -81.42548 | 24898 ft | 395 kts | 353° |
| 2026-04-24 23:33 | 29.33262 | -81.42909 | 25245 ft | 397 kts | 353° |
| 2026-04-24 23:34 | 29.35325 | -81.43182 | 25501 ft | 399 kts | 353° |
| 2026-04-24 23:34 | 29.38099 | -81.43548 | 25837 ft | 401 kts | 353° |
| 2026-04-24 23:34 | 29.40881 | -81.43916 | 26165 ft | 403 kts | 353° |
| 2026-04-24 23:34 | 29.43682 | -81.44286 | 26486 ft | 405 kts | 353° |
| 2026-04-24 23:35 | 29.46463 | -81.44654 | 26780 ft | 407 kts | 353° |
| 2026-04-24 23:35 | 29.49303 | -81.45030 | 26657 ft | 407 kts | 353° |
| 2026-04-24 23:35 | 29.52123 | -81.45403 | 26532 ft | 405 kts | 353° |
| 2026-04-24 23:35 | 29.54917 | -81.45773 | 26408 ft | 404 kts | 353° |
| 2026-04-24 23:36 | 29.57700 | -81.46143 | 26285 ft | 404 kts | 353° |
| 2026-04-24 23:36 | 29.60501 | -81.46514 | 26160 ft | 403 kts | 353° |
| 2026-04-24 23:36 | 29.63293 | -81.46884 | 26035 ft | 402 kts | 353° |
| 2026-04-24 23:36 | 29.66064 | -81.47252 | 26014 ft | 402 kts | 353° |
| 2026-04-24 23:37 | 29.68847 | -81.47622 | 26008 ft | 402 kts | 353° |
| 2026-04-24 23:37 | 29.71614 | -81.47990 | 26006 ft | 402 kts | 353° |
| 2026-04-24 23:37 | 29.77131 | -81.48732 | 26000 ft | 394 kts | 352° |
| 2026-04-24 23:38 | 29.79719 | -81.49643 | 25978 ft | 392 kts | 330° |
| 2026-04-24 23:38 | 29.81835 | -81.51627 | 26015 ft | 391 kts | 313° |
| 2026-04-24 23:38 | 29.83636 | -81.53983 | 26008 ft | 392 kts | 310° |
| 2026-04-24 23:38 | 29.85408 | -81.56338 | 26005 ft | 392 kts | 311° |
| 2026-04-24 23:39 | 29.87246 | -81.58677 | 26004 ft | 392 kts | 313° |
| 2026-04-24 23:39 | 29.89115 | -81.60970 | 26004 ft | 392 kts | 314° |
| 2026-04-24 23:39 | 29.91005 | -81.63238 | 26004 ft | 392 kts | 314° |
| 2026-04-24 23:39 | 29.92880 | -81.65471 | 26004 ft | 392 kts | 314° |
| 2026-04-24 23:40 | 29.94866 | -81.67625 | 25990 ft | 392 kts | 323° |
| 2026-04-24 23:40 | 29.97270 | -81.69113 | 25666 ft | 392 kts | 342° |
| 2026-04-24 23:40 | 29.99948 | -81.69568 | 25240 ft | 388 kts | 2° |
| 2026-04-24 23:40 | 30.02565 | -81.68971 | 24804 ft | 385 kts | 21° |
| 2026-04-24 23:41 | 30.04858 | -81.67409 | 24362 ft | 382 kts | 41° |
| 2026-04-24 23:41 | 30.06562 | -81.65126 | 23936 ft | 379 kts | 56° |
| 2026-04-24 23:41 | 30.08069 | -81.62622 | 23485 ft | 377 kts | 50° |
| 2026-04-24 23:41 | 30.09983 | -81.60609 | 23042 ft | 375 kts | 32° |
| 2026-04-24 23:42 | 30.12351 | -81.59361 | 22625 ft | 371 kts | 19° |
| 2026-04-24 23:42 | 30.14745 | -81.58403 | 22193 ft | 364 kts | 19° |
| 2026-04-24 23:42 | 30.17197 | -81.57445 | 21699 ft | 379 kts | 18° |
| 2026-04-24 23:42 | 30.19705 | -81.56476 | 21198 ft | 375 kts | 18° |
| 2026-04-24 23:43 | 30.22155 | -81.55534 | 20608 ft | 369 kts | 18° |
| 2026-04-24 23:43 | 30.24597 | -81.54598 | 19682 ft | 373 kts | 18° |
| 2026-04-24 23:43 | 30.27068 | -81.53652 | 18560 ft | 381 kts | 18° |
| 2026-04-24 23:43 | 30.29605 | -81.52737 | 17366 ft | 389 kts | 13° |
| 2026-04-24 23:44 | 30.32319 | -81.52631 | 15996 ft | 398 kts | 349° |
| 2026-04-24 23:44 | 30.34846 | -81.53798 | 14654 ft | 405 kts | 326° |
| 2026-04-24 23:44 | 30.36836 | -81.56110 | 13332 ft | 408 kts | 303° |
| 2026-04-24 23:44 | 30.38038 | -81.58990 | 12287 ft | 399 kts | 291° |
| 2026-04-24 23:45 | 30.39038 | -81.61938 | 11060 ft | 393 kts | 291° |
| 2026-04-24 23:45 | 30.40062 | -81.64813 | 9865 ft | 384 kts | 291° |
| 2026-04-24 23:45 | 30.40697 | -81.67735 | 8909 ft | 370 kts | 274° |
| 2026-04-24 23:45 | 30.40447 | -81.70588 | 8159 ft | 353 kts | 255° |
| 2026-04-24 23:46 | 30.39708 | -81.73223 | 7413 ft | 340 kts | 250° |
| 2026-04-24 23:46 | 30.38896 | -81.75732 | 6660 ft | 328 kts | 249° |
| 2026-04-24 23:46 | 30.38095 | -81.78151 | 5908 ft | 319 kts | 249° |
| 2026-04-24 23:46 | 30.37313 | -81.80503 | 5157 ft | 311 kts | 249° |
| 2026-04-24 23:47 | 30.36549 | -81.82803 | 4479 ft | 301 kts | 249° |
| 2026-04-24 23:47 | 30.35818 | -81.85007 | 4096 ft | 283 kts | 249° |
| 2026-04-24 23:47 | 30.35141 | -81.87048 | 3862 ft | 265 kts | 249° |
| 2026-04-24 23:47 | 30.34490 | -81.89015 | 3900 ft | 264 kts | 249° |
| 2026-04-24 23:48 | 30.33826 | -81.91019 | 3951 ft | 264 kts | 249° |
| 2026-04-24 23:48 | 30.33312 | -81.93037 | 3962 ft | 264 kts | 266° |
| 2026-04-24 23:48 | 30.33588 | -81.95102 | 3984 ft | 262 kts | 293° |
| 2026-04-24 23:48 | 30.34436 | -81.97000 | 4004 ft | 264 kts | 304° |
| 2026-04-24 23:49 | 30.35743 | -81.98436 | 4001 ft | 263 kts | 328° |
| 2026-04-24 23:49 | 30.37352 | -81.99465 | 4004 ft | 264 kts | 333° |
| 2026-04-24 23:49 | 30.39044 | -82.00212 | 3982 ft | 254 kts | 344° |
| 2026-04-24 23:49 | 30.40743 | -82.00615 | 3925 ft | 252 kts | 360° |
| 2026-04-24 23:50 | 30.42375 | -82.00178 | 3665 ft | 234 kts | 28° |
| 2026-04-24 23:50 | 30.43540 | -81.98967 | 3351 ft | 218 kts | 54° |
| 2026-04-24 23:50 | 30.44010 | -81.97397 | 3107 ft | 200 kts | 88° |
| 2026-04-24 23:50 | 30.43891 | -81.95866 | 2926 ft | 187 kts | 98° |
| 2026-04-24 23:51 | 30.43678 | -81.94370 | 2919 ft | 187 kts | 99° |
| 2026-04-24 23:51 | 30.43567 | -81.92883 | 2918 ft | 187 kts | 92° |